sensor_id;sensor_type;location;lat;lon;timestamp;P1;durP1;ratioP1;P2;durP2;ratioP2
1136;SDS011;557;48.466;7.950;2023-04-25T00:00:04;3.50;;;3.20;;
1136;SDS011;557;48.466;7.950;2023-04-25T00:02:52;10.20;;;4.17;;
1136;SDS011;557;48.466;7.950;2023-04-25T00:05:42;4.87;;;3.83;;
1136;SDS011;557;48.466;7.950;2023-04-25T00:08:30;4.67;;;3.80;;
1136;SDS011;557;48.466;7.950;2023-04-25T00:11:17;4.73;;;4.23;;
1136;SDS011;557;48.466;7.950;2023-04-25T00:14:05;4.00;;;3.70;;
1136;SDS011;557;48.466;7.950;2023-04-25T00:16:52;3.90;;;3.50;;
1136;SDS011;557;48.466;7.950;2023-04-25T00:19:40;4.30;;;3.83;;
1136;SDS011;557;48.466;7.950;2023-04-25T00:22:28;6.10;;;4.23;;
1136;SDS011;557;48.466;7.950;2023-04-25T00:25:16;6.67;;;3.77;;
1136;SDS011;557;48.466;7.950;2023-04-25T00:28:03;7.20;;;4.03;;
1136;SDS011;557;48.466;7.950;2023-04-25T00:30:50;5.00;;;3.50;;
1136;SDS011;557;48.466;7.950;2023-04-25T00:33:37;5.07;;;3.47;;
1136;SDS011;557;48.466;7.950;2023-04-25T00:36:25;5.80;;;4.40;;
1136;SDS011;557;48.466;7.950;2023-04-25T00:39:14;4.03;;;3.67;;
1136;SDS011;557;48.466;7.950;2023-04-25T00:42:01;4.90;;;3.70;;
1136;SDS011;557;48.466;7.950;2023-04-25T00:44:49;4.10;;;3.53;;
1136;SDS011;557;48.466;7.950;2023-04-25T00:47:38;4.40;;;4.00;;
1136;SDS011;557;48.466;7.950;2023-04-25T00:50:26;3.80;;;3.33;;
1136;SDS011;557;48.466;7.950;2023-04-25T00:53:13;3.57;;;3.23;;
1136;SDS011;557;48.466;7.950;2023-04-25T00:56:02;7.83;;;3.50;;
1136;SDS011;557;48.466;7.950;2023-04-25T00:58:49;6.33;;;3.70;;
1136;SDS011;557;48.466;7.950;2023-04-25T01:01:40;5.37;;;3.60;;
1136;SDS011;557;48.466;7.950;2023-04-25T01:04:29;4.53;;;4.03;;
1136;SDS011;557;48.466;7.950;2023-04-25T01:07:16;4.43;;;3.80;;
1136;SDS011;557;48.466;7.950;2023-04-25T01:10:04;4.33;;;3.33;;
1136;SDS011;557;48.466;7.950;2023-04-25T01:12:54;3.90;;;3.60;;
1136;SDS011;557;48.466;7.950;2023-04-25T01:15:41;5.27;;;3.33;;
1136;SDS011;557;48.466;7.950;2023-04-25T01:18:29;4.90;;;3.63;;
1136;SDS011;557;48.466;7.950;2023-04-25T01:21:18;7.13;;;3.67;;
1136;SDS011;557;48.466;7.950;2023-04-25T01:24:05;4.10;;;3.70;;
1136;SDS011;557;48.466;7.950;2023-04-25T01:26:53;4.70;;;3.20;;
1136;SDS011;557;48.466;7.950;2023-04-25T01:29:41;5.40;;;3.70;;
1136;SDS011;557;48.466;7.950;2023-04-25T01:32:29;3.87;;;3.10;;
1136;SDS011;557;48.466;7.950;2023-04-25T01:35:23;7.00;;;4.10;;
1136;SDS011;557;48.466;7.950;2023-04-25T01:38:13;5.43;;;3.90;;
1136;SDS011;557;48.466;7.950;2023-04-25T01:41:00;6.30;;;3.60;;
1136;SDS011;557;48.466;7.950;2023-04-25T01:43:48;5.40;;;3.37;;
1136;SDS011;557;48.466;7.950;2023-04-25T01:46:36;5.67;;;3.90;;
1136;SDS011;557;48.466;7.950;2023-04-25T01:49:23;4.40;;;3.57;;
1136;SDS011;557;48.466;7.950;2023-04-25T01:52:10;4.17;;;3.53;;
1136;SDS011;557;48.466;7.950;2023-04-25T01:55:00;4.43;;;3.30;;
1136;SDS011;557;48.466;7.950;2023-04-25T01:57:48;6.47;;;3.77;;
1136;SDS011;557;48.466;7.950;2023-04-25T02:00:36;5.50;;;3.80;;
1136;SDS011;557;48.466;7.950;2023-04-25T02:03:24;4.70;;;3.47;;
1136;SDS011;557;48.466;7.950;2023-04-25T02:06:12;4.10;;;3.37;;
1136;SDS011;557;48.466;7.950;2023-04-25T02:08:59;5.13;;;3.93;;
1136;SDS011;557;48.466;7.950;2023-04-25T02:11:48;4.20;;;3.67;;
1136;SDS011;557;48.466;7.950;2023-04-25T02:14:35;5.57;;;3.90;;
1136;SDS011;557;48.466;7.950;2023-04-25T02:17:23;6.17;;;3.53;;
1136;SDS011;557;48.466;7.950;2023-04-25T02:20:10;4.40;;;3.43;;
1136;SDS011;557;48.466;7.950;2023-04-25T02:22:58;5.13;;;3.00;;
1136;SDS011;557;48.466;7.950;2023-04-25T02:25:45;4.97;;;2.80;;
1136;SDS011;557;48.466;7.950;2023-04-25T02:28:34;6.40;;;3.30;;
1136;SDS011;557;48.466;7.950;2023-04-25T02:31:21;3.80;;;3.27;;
1136;SDS011;557;48.466;7.950;2023-04-25T02:34:09;5.03;;;3.00;;
1136;SDS011;557;48.466;7.950;2023-04-25T02:36:56;6.03;;;3.60;;
1136;SDS011;557;48.466;7.950;2023-04-25T02:39:43;4.23;;;3.43;;
1136;SDS011;557;48.466;7.950;2023-04-25T02:42:31;5.53;;;3.37;;
1136;SDS011;557;48.466;7.950;2023-04-25T02:45:20;7.47;;;2.87;;
1136;SDS011;557;48.466;7.950;2023-04-25T02:48:08;4.83;;;3.20;;
1136;SDS011;557;48.466;7.950;2023-04-25T02:50:55;3.90;;;2.80;;
1136;SDS011;557;48.466;7.950;2023-04-25T02:53:43;6.60;;;3.30;;
1136;SDS011;557;48.466;7.950;2023-04-25T02:56:30;5.17;;;3.37;;
1136;SDS011;557;48.466;7.950;2023-04-25T02:59:17;4.13;;;2.70;;
1136;SDS011;557;48.466;7.950;2023-04-25T03:02:06;4.03;;;3.10;;
1136;SDS011;557;48.466;7.950;2023-04-25T03:04:53;6.13;;;3.00;;
1136;SDS011;557;48.466;7.950;2023-04-25T03:07:41;3.90;;;3.50;;
1136;SDS011;557;48.466;7.950;2023-04-25T03:10:29;5.67;;;3.37;;
1136;SDS011;557;48.466;7.950;2023-04-25T03:13:16;8.07;;;3.17;;
1136;SDS011;557;48.466;7.950;2023-04-25T03:16:04;6.67;;;4.00;;
1136;SDS011;557;48.466;7.950;2023-04-25T03:18:52;6.00;;;2.93;;
1136;SDS011;557;48.466;7.950;2023-04-25T03:21:40;7.20;;;3.67;;
1136;SDS011;557;48.466;7.950;2023-04-25T03:24:27;4.40;;;3.00;;
1136;SDS011;557;48.466;7.950;2023-04-25T03:27:15;6.93;;;3.20;;
1136;SDS011;557;48.466;7.950;2023-04-25T03:30:02;6.20;;;3.73;;
1136;SDS011;557;48.466;7.950;2023-04-25T03:32:50;4.83;;;3.70;;
1136;SDS011;557;48.466;7.950;2023-04-25T03:35:39;5.90;;;3.77;;
1136;SDS011;557;48.466;7.950;2023-04-25T03:38:28;5.20;;;3.60;;
1136;SDS011;557;48.466;7.950;2023-04-25T03:41:15;6.17;;;3.57;;
1136;SDS011;557;48.466;7.950;2023-04-25T03:44:02;8.00;;;3.90;;
1136;SDS011;557;48.466;7.950;2023-04-25T03:46:50;5.17;;;3.73;;
1136;SDS011;557;48.466;7.950;2023-04-25T03:49:37;7.43;;;3.30;;
1136;SDS011;557;48.466;7.950;2023-04-25T03:52:26;5.27;;;3.30;;
1136;SDS011;557;48.466;7.950;2023-04-25T03:55:13;5.07;;;3.17;;
1136;SDS011;557;48.466;7.950;2023-04-25T03:58:00;4.50;;;3.67;;
1136;SDS011;557;48.466;7.950;2023-04-25T04:00:48;3.50;;;2.90;;
1136;SDS011;557;48.466;7.950;2023-04-25T04:03:35;5.33;;;3.70;;
1136;SDS011;557;48.466;7.950;2023-04-25T04:06:23;3.63;;;2.97;;
1136;SDS011;557;48.466;7.950;2023-04-25T04:09:12;6.37;;;3.83;;
1136;SDS011;557;48.466;7.950;2023-04-25T04:12:01;5.10;;;3.83;;
1136;SDS011;557;48.466;7.950;2023-04-25T04:14:48;8.30;;;3.70;;
1136;SDS011;557;48.466;7.950;2023-04-25T04:17:35;5.70;;;3.70;;
1136;SDS011;557;48.466;7.950;2023-04-25T04:20:23;6.10;;;3.27;;
1136;SDS011;557;48.466;7.950;2023-04-25T04:23:10;4.40;;;3.00;;
1136;SDS011;557;48.466;7.950;2023-04-25T04:25:59;4.63;;;3.30;;
1136;SDS011;557;48.466;7.950;2023-04-25T04:28:47;5.53;;;3.77;;
1136;SDS011;557;48.466;7.950;2023-04-25T04:31:35;3.50;;;2.67;;
1136;SDS011;557;48.466;7.950;2023-04-25T04:34:23;4.37;;;3.80;;
1136;SDS011;557;48.466;7.950;2023-04-25T04:37:11;4.43;;;3.10;;
1136;SDS011;557;48.466;7.950;2023-04-25T04:39:58;4.80;;;3.20;;
1136;SDS011;557;48.466;7.950;2023-04-25T04:42:48;4.70;;;3.20;;
1136;SDS011;557;48.466;7.950;2023-04-25T04:45:35;3.93;;;2.63;;
1136;SDS011;557;48.466;7.950;2023-04-25T04:48:23;5.20;;;3.00;;
1136;SDS011;557;48.466;7.950;2023-04-25T04:51:11;5.77;;;3.17;;
1136;SDS011;557;48.466;7.950;2023-04-25T04:53:58;4.70;;;3.40;;
1136;SDS011;557;48.466;7.950;2023-04-25T04:56:47;5.30;;;3.43;;
1136;SDS011;557;48.466;7.950;2023-04-25T04:59:37;5.90;;;3.07;;
1136;SDS011;557;48.466;7.950;2023-04-25T05:02:24;4.77;;;3.30;;
1136;SDS011;557;48.466;7.950;2023-04-25T05:05:11;7.57;;;3.33;;
1136;SDS011;557;48.466;7.950;2023-04-25T05:07:59;4.10;;;2.93;;
1136;SDS011;557;48.466;7.950;2023-04-25T05:10:46;6.40;;;3.50;;
1136;SDS011;557;48.466;7.950;2023-04-25T05:13:33;4.00;;;3.20;;
1136;SDS011;557;48.466;7.950;2023-04-25T05:16:22;4.70;;;3.70;;
1136;SDS011;557;48.466;7.950;2023-04-25T05:19:09;4.53;;;3.27;;
1136;SDS011;557;48.466;7.950;2023-04-25T05:21:56;7.80;;;3.83;;
1136;SDS011;557;48.466;7.950;2023-04-25T05:24:44;4.80;;;3.70;;
1136;SDS011;557;48.466;7.950;2023-04-25T05:27:31;4.60;;;3.33;;
1136;SDS011;557;48.466;7.950;2023-04-25T05:30:18;3.90;;;2.50;;
1136;SDS011;557;48.466;7.950;2023-04-25T05:33:07;4.80;;;3.20;;
1136;SDS011;557;48.466;7.950;2023-04-25T05:35:54;4.97;;;3.23;;
1136;SDS011;557;48.466;7.950;2023-04-25T05:38:42;7.00;;;3.07;;
1136;SDS011;557;48.466;7.950;2023-04-25T05:41:29;4.77;;;2.83;;
1136;SDS011;557;48.466;7.950;2023-04-25T05:44:16;5.63;;;3.10;;
1136;SDS011;557;48.466;7.950;2023-04-25T05:47:04;5.07;;;3.07;;
1136;SDS011;557;48.466;7.950;2023-04-25T05:49:53;5.03;;;3.73;;
1136;SDS011;557;48.466;7.950;2023-04-25T05:52:40;3.93;;;3.13;;
1136;SDS011;557;48.466;7.950;2023-04-25T05:55:27;4.13;;;3.20;;
1136;SDS011;557;48.466;7.950;2023-04-25T05:58:15;4.17;;;3.20;;
1136;SDS011;557;48.466;7.950;2023-04-25T06:01:02;5.53;;;3.27;;
1136;SDS011;557;48.466;7.950;2023-04-25T06:03:50;3.83;;;3.20;;
1136;SDS011;557;48.466;7.950;2023-04-25T06:06:39;3.97;;;3.03;;
1136;SDS011;557;48.466;7.950;2023-04-25T06:09:26;5.57;;;3.77;;
1136;SDS011;557;48.466;7.950;2023-04-25T06:12:14;10.87;;;4.43;;
1136;SDS011;557;48.466;7.950;2023-04-25T06:15:01;5.70;;;4.37;;
1136;SDS011;557;48.466;7.950;2023-04-25T06:17:49;6.43;;;4.07;;
1136;SDS011;557;48.466;7.950;2023-04-25T06:20:36;8.63;;;3.73;;
1136;SDS011;557;48.466;7.950;2023-04-25T06:23:25;6.50;;;5.07;;
1136;SDS011;557;48.466;7.950;2023-04-25T06:26:12;12.07;;;6.00;;
1136;SDS011;557;48.466;7.950;2023-04-25T06:28:59;7.37;;;4.53;;
1136;SDS011;557;48.466;7.950;2023-04-25T06:31:47;7.40;;;4.67;;
1136;SDS011;557;48.466;7.950;2023-04-25T06:34:34;7.20;;;4.80;;
1136;SDS011;557;48.466;7.950;2023-04-25T06:37:21;11.43;;;6.00;;
1136;SDS011;557;48.466;7.950;2023-04-25T06:40:10;9.63;;;5.10;;
1136;SDS011;557;48.466;7.950;2023-04-25T06:42:58;8.60;;;5.50;;
1136;SDS011;557;48.466;7.950;2023-04-25T06:45:45;7.73;;;5.70;;
1136;SDS011;557;48.466;7.950;2023-04-25T06:48:32;7.27;;;5.53;;
1136;SDS011;557;48.466;7.950;2023-04-25T06:51:20;9.53;;;6.03;;
1136;SDS011;557;48.466;7.950;2023-04-25T06:54:07;8.70;;;4.80;;
1136;SDS011;557;48.466;7.950;2023-04-25T06:56:56;7.70;;;4.93;;
1136;SDS011;557;48.466;7.950;2023-04-25T06:59:43;7.87;;;5.77;;
1136;SDS011;557;48.466;7.950;2023-04-25T07:02:31;8.47;;;5.07;;
1136;SDS011;557;48.466;7.950;2023-04-25T07:05:18;12.60;;;5.93;;
1136;SDS011;557;48.466;7.950;2023-04-25T07:08:06;8.03;;;5.90;;
1136;SDS011;557;48.466;7.950;2023-04-25T07:10:54;13.53;;;7.00;;
1136;SDS011;557;48.466;7.950;2023-04-25T07:13:42;10.10;;;5.80;;
1136;SDS011;557;48.466;7.950;2023-04-25T07:16:30;8.00;;;5.17;;
1136;SDS011;557;48.466;7.950;2023-04-25T07:19:17;6.67;;;4.80;;
1136;SDS011;557;48.466;7.950;2023-04-25T07:22:04;7.00;;;3.80;;
1136;SDS011;557;48.466;7.950;2023-04-25T07:24:52;5.20;;;3.60;;
1136;SDS011;557;48.466;7.950;2023-04-25T07:27:39;6.13;;;3.83;;
1136;SDS011;557;48.466;7.950;2023-04-25T07:30:28;5.90;;;4.70;;
1136;SDS011;557;48.466;7.950;2023-04-25T07:33:15;9.10;;;5.53;;
1136;SDS011;557;48.466;7.950;2023-04-25T07:36:03;5.13;;;3.90;;
1136;SDS011;557;48.466;7.950;2023-04-25T07:38:50;4.70;;;3.57;;
1136;SDS011;557;48.466;7.950;2023-04-25T07:41:37;5.73;;;3.80;;
1136;SDS011;557;48.466;7.950;2023-04-25T07:44:25;3.80;;;2.23;;
1136;SDS011;557;48.466;7.950;2023-04-25T07:47:13;4.20;;;2.50;;
1136;SDS011;557;48.466;7.950;2023-04-25T07:50:01;4.23;;;2.83;;
1136;SDS011;557;48.466;7.950;2023-04-25T07:52:48;3.37;;;2.37;;
1136;SDS011;557;48.466;7.950;2023-04-25T07:55:36;4.47;;;2.73;;
1136;SDS011;557;48.466;7.950;2023-04-25T07:58:25;3.70;;;2.33;;
1136;SDS011;557;48.466;7.950;2023-04-25T08:01:12;4.07;;;2.80;;
1136;SDS011;557;48.466;7.950;2023-04-25T08:04:01;4.67;;;2.90;;
1136;SDS011;557;48.466;7.950;2023-04-25T08:06:49;4.10;;;2.80;;
1136;SDS011;557;48.466;7.950;2023-04-25T08:09:36;3.47;;;2.23;;
1136;SDS011;557;48.466;7.950;2023-04-25T08:12:23;6.20;;;3.27;;
1136;SDS011;557;48.466;7.950;2023-04-25T08:15:11;4.50;;;3.13;;
1136;SDS011;557;48.466;7.950;2023-04-25T08:17:59;4.30;;;2.50;;
1136;SDS011;557;48.466;7.950;2023-04-25T08:20:48;4.07;;;2.90;;
1136;SDS011;557;48.466;7.950;2023-04-25T08:23:36;5.47;;;3.30;;
1136;SDS011;557;48.466;7.950;2023-04-25T08:26:23;4.50;;;2.90;;
1136;SDS011;557;48.466;7.950;2023-04-25T08:29:10;3.20;;;2.10;;
1136;SDS011;557;48.466;7.950;2023-04-25T08:31:58;5.73;;;2.40;;
1136;SDS011;557;48.466;7.950;2023-04-25T08:34:45;4.30;;;3.10;;
1136;SDS011;557;48.466;7.950;2023-04-25T08:37:34;2.60;;;1.50;;
1136;SDS011;557;48.466;7.950;2023-04-25T08:40:22;8.10;;;1.60;;
1136;SDS011;557;48.466;7.950;2023-04-25T08:43:17;2.20;;;1.03;;
1136;SDS011;557;48.466;7.950;2023-04-25T08:46:05;2.10;;;1.30;;
1136;SDS011;557;48.466;7.950;2023-04-25T08:48:54;1.67;;;1.00;;
1136;SDS011;557;48.466;7.950;2023-04-25T08:51:47;8.37;;;7.47;;
1136;SDS011;557;48.466;7.950;2023-04-25T08:54:39;2.47;;;1.37;;
1136;SDS011;557;48.466;7.950;2023-04-25T08:57:29;6.40;;;5.80;;
1136;SDS011;557;48.466;7.950;2023-04-25T09:00:20;3.67;;;2.30;;
1136;SDS011;557;48.466;7.950;2023-04-25T09:03:08;2.00;;;1.40;;
1136;SDS011;557;48.466;7.950;2023-04-25T09:05:56;1.60;;;1.17;;
1136;SDS011;557;48.466;7.950;2023-04-25T09:08:45;2.00;;;1.20;;
1136;SDS011;557;48.466;7.950;2023-04-25T09:11:34;1.33;;;0.77;;
1136;SDS011;557;48.466;7.950;2023-04-25T09:14:22;2.17;;;1.13;;
1136;SDS011;557;48.466;7.950;2023-04-25T09:17:11;2.00;;;1.20;;
1136;SDS011;557;48.466;7.950;2023-04-25T09:20:05;3.27;;;1.47;;
1136;SDS011;557;48.466;7.950;2023-04-25T09:23:04;2.00;;;0.97;;
1136;SDS011;557;48.466;7.950;2023-04-25T09:25:53;3.17;;;1.60;;
1136;SDS011;557;48.466;7.950;2023-04-25T09:28:41;2.50;;;1.60;;
1136;SDS011;557;48.466;7.950;2023-04-25T09:31:29;6.27;;;4.00;;
1136;SDS011;557;48.466;7.950;2023-04-25T09:34:20;2.97;;;1.67;;
1136;SDS011;557;48.466;7.950;2023-04-25T09:37:07;1.90;;;1.10;;
1136;SDS011;557;48.466;7.950;2023-04-25T09:39:56;2.00;;;0.87;;
1136;SDS011;557;48.466;7.950;2023-04-25T09:42:45;1.57;;;0.90;;
1136;SDS011;557;48.466;7.950;2023-04-25T09:45:34;1.40;;;0.83;;
1136;SDS011;557;48.466;7.950;2023-04-25T09:48:31;3.20;;;2.43;;
1136;SDS011;557;48.466;7.950;2023-04-25T09:51:18;1.63;;;0.87;;
1136;SDS011;557;48.466;7.950;2023-04-25T09:54:06;1.70;;;0.70;;
1136;SDS011;557;48.466;7.950;2023-04-25T09:56:53;1.30;;;0.50;;
1136;SDS011;557;48.466;7.950;2023-04-25T09:59:43;1.47;;;0.70;;
1136;SDS011;557;48.466;7.950;2023-04-25T10:02:32;1.40;;;0.70;;
1136;SDS011;557;48.466;7.950;2023-04-25T10:05:21;2.00;;;0.70;;
1136;SDS011;557;48.466;7.950;2023-04-25T10:08:10;2.17;;;0.70;;
1136;SDS011;557;48.466;7.950;2023-04-25T10:11:00;1.20;;;0.50;;
1136;SDS011;557;48.466;7.950;2023-04-25T10:13:49;1.50;;;0.70;;
1136;SDS011;557;48.466;7.950;2023-04-25T10:16:37;4.47;;;2.00;;
1136;SDS011;557;48.466;7.950;2023-04-25T10:19:28;2.97;;;1.50;;
1136;SDS011;557;48.466;7.950;2023-04-25T10:22:17;2.17;;;1.43;;
1136;SDS011;557;48.466;7.950;2023-04-25T10:25:09;3.17;;;1.73;;
1136;SDS011;557;48.466;7.950;2023-04-25T10:27:57;1.40;;;0.80;;
1136;SDS011;557;48.466;7.950;2023-04-25T10:30:57;1.90;;;1.20;;
1136;SDS011;557;48.466;7.950;2023-04-25T10:33:44;2.33;;;1.53;;
1136;SDS011;557;48.466;7.950;2023-04-25T10:36:33;1.37;;;0.80;;
1136;SDS011;557;48.466;7.950;2023-04-25T10:39:23;1.20;;;0.60;;
1136;SDS011;557;48.466;7.950;2023-04-25T10:42:11;1.40;;;0.83;;
1136;SDS011;557;48.466;7.950;2023-04-25T10:45:02;1.50;;;0.63;;
1136;SDS011;557;48.466;7.950;2023-04-25T10:47:51;1.60;;;0.90;;
1136;SDS011;557;48.466;7.950;2023-04-25T10:50:39;1.60;;;0.57;;
1136;SDS011;557;48.466;7.950;2023-04-25T10:53:31;1.40;;;0.77;;
1136;SDS011;557;48.466;7.950;2023-04-25T10:56:20;1.60;;;0.90;;
1136;SDS011;557;48.466;7.950;2023-04-25T10:59:09;1.80;;;0.67;;
1136;SDS011;557;48.466;7.950;2023-04-25T11:01:57;1.30;;;0.60;;
1136;SDS011;557;48.466;7.950;2023-04-25T11:04:45;1.90;;;1.00;;
1136;SDS011;557;48.466;7.950;2023-04-25T11:07:34;2.30;;;1.20;;
1136;SDS011;557;48.466;7.950;2023-04-25T11:10:32;2.30;;;1.10;;
1136;SDS011;557;48.466;7.950;2023-04-25T11:13:21;2.10;;;0.87;;
1136;SDS011;557;48.466;7.950;2023-04-25T11:16:09;1.80;;;0.90;;
1136;SDS011;557;48.466;7.950;2023-04-25T11:18:56;1.80;;;0.70;;
1136;SDS011;557;48.466;7.950;2023-04-25T11:21:44;1.87;;;1.10;;
1136;SDS011;557;48.466;7.950;2023-04-25T11:24:32;2.20;;;1.20;;
1136;SDS011;557;48.466;7.950;2023-04-25T11:27:22;1.73;;;1.27;;
1136;SDS011;557;48.466;7.950;2023-04-25T11:30:11;1.60;;;1.00;;
1136;SDS011;557;48.466;7.950;2023-04-25T11:33:00;2.13;;;1.00;;
1136;SDS011;557;48.466;7.950;2023-04-25T11:35:48;2.20;;;1.30;;
1136;SDS011;557;48.466;7.950;2023-04-25T11:38:36;1.97;;;1.30;;
1136;SDS011;557;48.466;7.950;2023-04-25T11:41:23;1.97;;;1.20;;
1136;SDS011;557;48.466;7.950;2023-04-25T11:44:13;1.90;;;1.20;;
1136;SDS011;557;48.466;7.950;2023-04-25T11:47:03;1.77;;;1.20;;
1136;SDS011;557;48.466;7.950;2023-04-25T11:49:52;1.90;;;1.37;;
1136;SDS011;557;48.466;7.950;2023-04-25T11:52:40;1.80;;;1.13;;
1136;SDS011;557;48.466;7.950;2023-04-25T11:55:29;2.53;;;0.97;;
1136;SDS011;557;48.466;7.950;2023-04-25T11:58:17;2.20;;;1.60;;
1136;SDS011;557;48.466;7.950;2023-04-25T12:01:06;1.60;;;1.00;;
1136;SDS011;557;48.466;7.950;2023-04-25T12:03:53;1.80;;;1.10;;
1136;SDS011;557;48.466;7.950;2023-04-25T12:06:41;2.67;;;1.40;;
1136;SDS011;557;48.466;7.950;2023-04-25T12:09:30;2.47;;;1.40;;
1136;SDS011;557;48.466;7.950;2023-04-25T12:12:18;1.90;;;1.00;;
1136;SDS011;557;48.466;7.950;2023-04-25T12:15:10;6.13;;;1.30;;
1136;SDS011;557;48.466;7.950;2023-04-25T12:18:01;2.27;;;1.20;;
1136;SDS011;557;48.466;7.950;2023-04-25T12:20:49;2.33;;;0.97;;
1136;SDS011;557;48.466;7.950;2023-04-25T12:23:38;2.10;;;1.00;;
1136;SDS011;557;48.466;7.950;2023-04-25T12:26:27;2.40;;;1.50;;
1136;SDS011;557;48.466;7.950;2023-04-25T12:29:33;2.03;;;1.40;;
1136;SDS011;557;48.466;7.950;2023-04-25T12:32:21;2.30;;;1.40;;
1136;SDS011;557;48.466;7.950;2023-04-25T12:35:10;2.37;;;2.17;;
1136;SDS011;557;48.466;7.950;2023-04-25T12:37:57;4.03;;;3.77;;
1136;SDS011;557;48.466;7.950;2023-04-25T12:40:44;4.53;;;4.23;;
1136;SDS011;557;48.466;7.950;2023-04-25T12:43:32;4.37;;;4.17;;
1136;SDS011;557;48.466;7.950;2023-04-25T12:46:19;4.27;;;3.97;;
1136;SDS011;557;48.466;7.950;2023-04-25T12:49:08;7.03;;;5.13;;
1136;SDS011;557;48.466;7.950;2023-04-25T12:51:57;4.10;;;3.80;;
1136;SDS011;557;48.466;7.950;2023-04-25T12:54:45;5.30;;;5.00;;
1136;SDS011;557;48.466;7.950;2023-04-25T12:57:32;5.40;;;5.00;;
1136;SDS011;557;48.466;7.950;2023-04-25T13:00:19;3.80;;;3.10;;
1136;SDS011;557;48.466;7.950;2023-04-25T13:03:07;3.33;;;3.03;;
1136;SDS011;557;48.466;7.950;2023-04-25T13:05:55;3.43;;;2.20;;
1136;SDS011;557;48.466;7.950;2023-04-25T13:08:43;3.70;;;2.70;;
1136;SDS011;557;48.466;7.950;2023-04-25T13:11:31;3.17;;;2.50;;
1136;SDS011;557;48.466;7.950;2023-04-25T13:14:18;4.87;;;2.70;;
1136;SDS011;557;48.466;7.950;2023-04-25T13:17:05;3.80;;;2.40;;
1136;SDS011;557;48.466;7.950;2023-04-25T13:19:53;3.60;;;2.40;;
1136;SDS011;557;48.466;7.950;2023-04-25T13:22:40;3.30;;;2.60;;
1136;SDS011;557;48.466;7.950;2023-04-25T13:25:30;4.47;;;2.80;;
1136;SDS011;557;48.466;7.950;2023-04-25T13:28:17;3.70;;;2.60;;
1136;SDS011;557;48.466;7.950;2023-04-25T13:31:04;3.20;;;2.20;;
1136;SDS011;557;48.466;7.950;2023-04-25T13:33:52;3.47;;;2.30;;
1136;SDS011;557;48.466;7.950;2023-04-25T13:36:39;3.27;;;2.00;;
1136;SDS011;557;48.466;7.950;2023-04-25T13:39:26;2.50;;;1.80;;
1136;SDS011;557;48.466;7.950;2023-04-25T13:42:15;2.70;;;1.63;;
1136;SDS011;557;48.466;7.950;2023-04-25T13:45:12;3.37;;;1.80;;
1136;SDS011;557;48.466;7.950;2023-04-25T13:48:00;1.83;;;1.30;;
1136;SDS011;557;48.466;7.950;2023-04-25T13:50:47;1.93;;;1.50;;
1136;SDS011;557;48.466;7.950;2023-04-25T13:53:35;1.90;;;1.50;;
1136;SDS011;557;48.466;7.950;2023-04-25T13:56:22;2.80;;;1.57;;
1136;SDS011;557;48.466;7.950;2023-04-25T13:59:11;2.53;;;1.10;;
1136;SDS011;557;48.466;7.950;2023-04-25T14:01:58;2.93;;;1.37;;
1136;SDS011;557;48.466;7.950;2023-04-25T14:04:46;2.30;;;1.30;;
1136;SDS011;557;48.466;7.950;2023-04-25T14:07:33;2.17;;;1.37;;
1136;SDS011;557;48.466;7.950;2023-04-25T14:10:21;2.70;;;1.90;;
1136;SDS011;557;48.466;7.950;2023-04-25T14:13:08;2.13;;;1.50;;
1136;SDS011;557;48.466;7.950;2023-04-25T14:15:57;2.10;;;1.80;;
1136;SDS011;557;48.466;7.950;2023-04-25T14:18:45;3.13;;;2.70;;
1136;SDS011;557;48.466;7.950;2023-04-25T14:21:32;3.37;;;3.10;;
1136;SDS011;557;48.466;7.950;2023-04-25T14:24:20;5.20;;;4.80;;
1136;SDS011;557;48.466;7.950;2023-04-25T14:27:08;5.33;;;5.03;;
1136;SDS011;557;48.466;7.950;2023-04-25T14:29:55;8.17;;;7.77;;
1136;SDS011;557;48.466;7.950;2023-04-25T14:32:44;7.10;;;6.70;;
1136;SDS011;557;48.466;7.950;2023-04-25T14:35:31;6.83;;;6.43;;
1136;SDS011;557;48.466;7.950;2023-04-25T14:38:19;6.60;;;6.30;;
1136;SDS011;557;48.466;7.950;2023-04-25T14:41:08;5.90;;;5.60;;
1136;SDS011;557;48.466;7.950;2023-04-25T14:43:58;7.80;;;7.40;;
1136;SDS011;557;48.466;7.950;2023-04-25T14:46:45;7.50;;;7.10;;
1136;SDS011;557;48.466;7.950;2023-04-25T14:49:34;5.80;;;5.50;;
1136;SDS011;557;48.466;7.950;2023-04-25T14:52:21;4.97;;;4.57;;
1136;SDS011;557;48.466;7.950;2023-04-25T14:55:09;7.03;;;6.63;;
1136;SDS011;557;48.466;7.950;2023-04-25T14:57:57;7.10;;;6.70;;
1136;SDS011;557;48.466;7.950;2023-04-25T15:00:44;6.37;;;6.00;;
1136;SDS011;557;48.466;7.950;2023-04-25T15:03:31;7.37;;;6.97;;
1136;SDS011;557;48.466;7.950;2023-04-25T15:06:20;8.00;;;7.60;;
1136;SDS011;557;48.466;7.950;2023-04-25T15:09:08;7.87;;;7.47;;
1136;SDS011;557;48.466;7.950;2023-04-25T15:11:56;7.77;;;7.37;;
1136;SDS011;557;48.466;7.950;2023-04-25T15:14:44;8.23;;;7.83;;
1136;SDS011;557;48.466;7.950;2023-04-25T15:17:31;7.83;;;7.40;;
1136;SDS011;557;48.466;7.950;2023-04-25T15:20:19;8.00;;;7.30;;
1136;SDS011;557;48.466;7.950;2023-04-25T15:23:07;7.20;;;6.90;;
1136;SDS011;557;48.466;7.950;2023-04-25T15:25:55;8.40;;;7.90;;
1136;SDS011;557;48.466;7.950;2023-04-25T15:28:42;7.70;;;7.30;;
1136;SDS011;557;48.466;7.950;2023-04-25T15:31:29;8.07;;;7.67;;
1136;SDS011;557;48.466;7.950;2023-04-25T15:34:17;8.23;;;7.80;;
1136;SDS011;557;48.466;7.950;2023-04-25T15:37:04;7.00;;;6.70;;
1136;SDS011;557;48.466;7.950;2023-04-25T15:39:53;7.90;;;7.50;;
1136;SDS011;557;48.466;7.950;2023-04-25T15:42:52;8.10;;;7.70;;
1136;SDS011;557;48.466;7.950;2023-04-25T15:45:40;9.90;;;9.30;;
1136;SDS011;557;48.466;7.950;2023-04-25T15:48:27;10.20;;;9.70;;
1136;SDS011;557;48.466;7.950;2023-04-25T15:51:15;10.07;;;9.57;;
1136;SDS011;557;48.466;7.950;2023-04-25T15:54:02;9.97;;;9.47;;
1136;SDS011;557;48.466;7.950;2023-04-25T15:56:51;9.30;;;8.80;;
1136;SDS011;557;48.466;7.950;2023-04-25T15:59:38;7.93;;;7.43;;
1136;SDS011;557;48.466;7.950;2023-04-25T16:02:26;8.40;;;7.90;;
1136;SDS011;557;48.466;7.950;2023-04-25T16:05:15;16.23;;;13.23;;
1136;SDS011;557;48.466;7.950;2023-04-25T16:08:04;6.43;;;5.90;;
1136;SDS011;557;48.466;7.950;2023-04-25T16:10:52;5.07;;;4.70;;
1136;SDS011;557;48.466;7.950;2023-04-25T16:13:41;5.37;;;4.87;;
1136;SDS011;557;48.466;7.950;2023-04-25T16:16:28;5.30;;;4.80;;
1136;SDS011;557;48.466;7.950;2023-04-25T16:19:15;4.57;;;4.17;;
1136;SDS011;557;48.466;7.950;2023-04-25T16:22:03;3.90;;;3.60;;
1136;SDS011;557;48.466;7.950;2023-04-25T16:24:51;3.33;;;3.13;;
1136;SDS011;557;48.466;7.950;2023-04-25T16:27:38;3.40;;;3.10;;
1136;SDS011;557;48.466;7.950;2023-04-25T16:30:27;4.67;;;2.80;;
1136;SDS011;557;48.466;7.950;2023-04-25T16:33:14;3.20;;;2.80;;
1136;SDS011;557;48.466;7.950;2023-04-25T16:36:02;3.93;;;3.00;;
1136;SDS011;557;48.466;7.950;2023-04-25T16:38:49;4.00;;;3.03;;
1136;SDS011;557;48.466;7.950;2023-04-25T16:41:37;3.43;;;2.83;;
1136;SDS011;557;48.466;7.950;2023-04-25T16:44:24;3.10;;;2.40;;
1136;SDS011;557;48.466;7.950;2023-04-25T16:47:13;3.83;;;3.07;;
1136;SDS011;557;48.466;7.950;2023-04-25T16:50:00;2.77;;;2.43;;
1136;SDS011;557;48.466;7.950;2023-04-25T16:52:48;3.37;;;2.50;;
1136;SDS011;557;48.466;7.950;2023-04-25T16:55:36;3.03;;;2.70;;
1136;SDS011;557;48.466;7.950;2023-04-25T16:58:23;4.90;;;2.90;;
1136;SDS011;557;48.466;7.950;2023-04-25T17:01:11;5.43;;;3.67;;
1136;SDS011;557;48.466;7.950;2023-04-25T17:04:03;5.57;;;3.73;;
1136;SDS011;557;48.466;7.950;2023-04-25T17:06:50;4.67;;;3.63;;
1136;SDS011;557;48.466;7.950;2023-04-25T17:09:37;5.27;;;3.80;;
1136;SDS011;557;48.466;7.950;2023-04-25T17:12:25;5.30;;;3.53;;
1136;SDS011;557;48.466;7.950;2023-04-25T17:15:13;6.03;;;4.20;;
1136;SDS011;557;48.466;7.950;2023-04-25T17:18:00;6.80;;;4.10;;
1136;SDS011;557;48.466;7.950;2023-04-25T17:20:49;4.90;;;3.70;;
1136;SDS011;557;48.466;7.950;2023-04-25T17:23:36;6.63;;;4.27;;
1136;SDS011;557;48.466;7.950;2023-04-25T17:26:29;7.47;;;4.77;;
1136;SDS011;557;48.466;7.950;2023-04-25T17:29:16;7.17;;;4.87;;
1136;SDS011;557;48.466;7.950;2023-04-25T17:32:06;7.40;;;5.00;;
1136;SDS011;557;48.466;7.950;2023-04-25T17:34:53;9.10;;;5.10;;
1136;SDS011;557;48.466;7.950;2023-04-25T17:37:42;7.60;;;5.17;;
1136;SDS011;557;48.466;7.950;2023-04-25T17:40:31;5.90;;;4.30;;